sensor_id;sensor_type;location;lat;lon;timestamp;temperature;humidity
14755;DHT22;7469;50.906;6.952;2023-11-19T00:00:22;10.70;99.90
14755;DHT22;7469;50.906;6.952;2023-11-19T00:02:50;10.70;99.90
14755;DHT22;7469;50.906;6.952;2023-11-19T00:05:18;10.70;99.90
14755;DHT22;7469;50.906;6.952;2023-11-19T00:07:48;10.70;99.90
14755;DHT22;7469;50.906;6.952;2023-11-19T00:10:17;10.70;99.90
14755;DHT22;7469;50.906;6.952;2023-11-19T00:12:47;10.70;99.90
14755;DHT22;7469;50.906;6.952;2023-11-19T00:15:16;10.80;99.90
14755;DHT22;7469;50.906;6.952;2023-11-19T00:17:47;10.70;99.90
14755;DHT22;7469;50.906;6.952;2023-11-19T00:20:17;10.80;99.90
14755;DHT22;7469;50.906;6.952;2023-11-19T00:22:45;10.80;99.90
14755;DHT22;7469;50.906;6.952;2023-11-19T00:25:18;10.80;99.90
14755;DHT22;7469;50.906;6.952;2023-11-19T00:27:46;10.80;99.90
14755;DHT22;7469;50.906;6.952;2023-11-19T00:30:15;10.80;99.90
14755;DHT22;7469;50.906;6.952;2023-11-19T00:32:45;10.80;99.90
14755;DHT22;7469;50.906;6.952;2023-11-19T00:35:13;10.90;99.90
14755;DHT22;7469;50.906;6.952;2023-11-19T00:37:42;10.90;99.90
14755;DHT22;7469;50.906;6.952;2023-11-19T00:40:12;10.90;99.90
14755;DHT22;7469;50.906;6.952;2023-11-19T00:42:44;10.90;99.90
14755;DHT22;7469;50.906;6.952;2023-11-19T00:45:12;10.90;99.90
14755;DHT22;7469;50.906;6.952;2023-11-19T00:47:40;10.90;99.90
14755;DHT22;7469;50.906;6.952;2023-11-19T00:50:09;10.90;99.90
14755;DHT22;7469;50.906;6.952;2023-11-19T00:52:38;10.90;99.90
14755;DHT22;7469;50.906;6.952;2023-11-19T00:55:06;10.90;99.90
14755;DHT22;7469;50.906;6.952;2023-11-19T00:57:35;10.90;99.90
14755;DHT22;7469;50.906;6.952;2023-11-19T01:00:05;10.90;99.90
14755;DHT22;7469;50.906;6.952;2023-11-19T01:02:46;10.90;99.90
14755;DHT22;7469;50.906;6.952;2023-11-19T01:05:16;10.90;99.90
14755;DHT22;7469;50.906;6.952;2023-11-19T01:07:48;10.90;99.90
14755;DHT22;7469;50.906;6.952;2023-11-19T01:10:16;10.90;99.90
14755;DHT22;7469;50.906;6.952;2023-11-19T01:12:45;10.90;99.90
14755;DHT22;7469;50.906;6.952;2023-11-19T01:15:14;10.90;99.90
14755;DHT22;7469;50.906;6.952;2023-11-19T01:17:45;10.90;99.90
14755;DHT22;7469;50.906;6.952;2023-11-19T01:20:16;10.90;99.90
14755;DHT22;7469;50.906;6.952;2023-11-19T01:22:44;10.90;99.90
14755;DHT22;7469;50.906;6.952;2023-11-19T01:25:12;10.90;99.90
14755;DHT22;7469;50.906;6.952;2023-11-19T01:27:40;11.00;99.90
14755;DHT22;7469;50.906;6.952;2023-11-19T01:30:09;11.00;99.90
14755;DHT22;7469;50.906;6.952;2023-11-19T01:32:41;11.00;99.90
14755;DHT22;7469;50.906;6.952;2023-11-19T01:35:09;11.00;99.90
14755;DHT22;7469;50.906;6.952;2023-11-19T01:37:37;11.10;99.90
14755;DHT22;7469;50.906;6.952;2023-11-19T01:40:06;11.10;99.90
14755;DHT22;7469;50.906;6.952;2023-11-19T01:42:37;11.10;99.90
14755;DHT22;7469;50.906;6.952;2023-11-19T01:45:06;11.20;99.90
14755;DHT22;7469;50.906;6.952;2023-11-19T01:47:35;11.20;99.90
14755;DHT22;7469;50.906;6.952;2023-11-19T01:50:06;11.20;99.90
14755;DHT22;7469;50.906;6.952;2023-11-19T01:52:35;11.30;99.90
14755;DHT22;7469;50.906;6.952;2023-11-19T01:55:06;11.30;99.90
14755;DHT22;7469;50.906;6.952;2023-11-19T01:57:36;11.40;99.90
14755;DHT22;7469;50.906;6.952;2023-11-19T02:00:08;11.50;99.90
14755;DHT22;7469;50.906;6.952;2023-11-19T02:02:38;11.50;99.90
14755;DHT22;7469;50.906;6.952;2023-11-19T02:05:10;11.60;99.90
14755;DHT22;7469;50.906;6.952;2023-11-19T02:07:39;11.70;99.90
14755;DHT22;7469;50.906;6.952;2023-11-19T02:10:08;11.70;99.90
14755;DHT22;7469;50.906;6.952;2023-11-19T02:12:40;11.80;99.90
14755;DHT22;7469;50.906;6.952;2023-11-19T02:15:10;11.80;99.90
14755;DHT22;7469;50.906;6.952;2023-11-19T02:17:38;11.90;99.90
14755;DHT22;7469;50.906;6.952;2023-11-19T02:20:09;11.90;99.90
14755;DHT22;7469;50.906;6.952;2023-11-19T02:22:39;12.00;99.90
14755;DHT22;7469;50.906;6.952;2023-11-19T02:25:10;12.00;99.90
14755;DHT22;7469;50.906;6.952;2023-11-19T02:27:49;12.00;99.90
14755;DHT22;7469;50.906;6.952;2023-11-19T02:30:19;12.00;99.90
14755;DHT22;7469;50.906;6.952;2023-11-19T02:32:46;12.00;99.90
14755;DHT22;7469;50.906;6.952;2023-11-19T02:35:15;12.10;99.90
14755;DHT22;7469;50.906;6.952;2023-11-19T02:37:43;12.00;99.90
14755;DHT22;7469;50.906;6.952;2023-11-19T02:40:11;12.00;99.90
14755;DHT22;7469;50.906;6.952;2023-11-19T02:42:40;12.00;99.90
14755;DHT22;7469;50.906;6.952;2023-11-19T02:45:10;12.00;99.90
14755;DHT22;7469;50.906;6.952;2023-11-19T02:47:40;12.00;99.90
14755;DHT22;7469;50.906;6.952;2023-11-19T02:50:10;11.90;99.90
14755;DHT22;7469;50.906;6.952;2023-11-19T02:52:41;12.00;99.90
14755;DHT22;7469;50.906;6.952;2023-11-19T02:55:09;12.10;99.90
14755;DHT22;7469;50.906;6.952;2023-11-19T02:57:39;12.10;99.90
14755;DHT22;7469;50.906;6.952;2023-11-19T03:00:15;12.00;99.90
14755;DHT22;7469;50.906;6.952;2023-11-19T03:02:44;12.00;99.90
14755;DHT22;7469;50.906;6.952;2023-11-19T03:05:14;12.10;99.90
14755;DHT22;7469;50.906;6.952;2023-11-19T03:07:43;12.10;99.90
14755;DHT22;7469;50.906;6.952;2023-11-19T03:10:12;12.10;99.90
14755;DHT22;7469;50.906;6.952;2023-11-19T03:12:42;12.10;99.90
14755;DHT22;7469;50.906;6.952;2023-11-19T03:15:10;12.10;99.90
14755;DHT22;7469;50.906;6.952;2023-11-19T03:17:41;12.10;99.90
14755;DHT22;7469;50.906;6.952;2023-11-19T03:20:10;12.20;99.90
14755;DHT22;7469;50.906;6.952;2023-11-19T03:22:42;12.20;99.90
14755;DHT22;7469;50.906;6.952;2023-11-19T03:25:10;12.10;99.90
14755;DHT22;7469;50.906;6.952;2023-11-19T03:27:39;12.20;99.90
14755;DHT22;7469;50.906;6.952;2023-11-19T03:30:09;12.20;99.90
14755;DHT22;7469;50.906;6.952;2023-11-19T03:32:38;12.10;99.90
14755;DHT22;7469;50.906;6.952;2023-11-19T03:35:07;12.10;99.90
14755;DHT22;7469;50.906;6.952;2023-11-19T03:37:36;12.10;99.90
14755;DHT22;7469;50.906;6.952;2023-11-19T03:40:05;12.10;99.90
14755;DHT22;7469;50.906;6.952;2023-11-19T03:42:33;12.10;99.90
14755;DHT22;7469;50.906;6.952;2023-11-19T03:45:01;12.10;99.90
14755;DHT22;7469;50.906;6.952;2023-11-19T03:47:30;12.10;99.90
14755;DHT22;7469;50.906;6.952;2023-11-19T03:49:58;12.10;99.90
14755;DHT22;7469;50.906;6.952;2023-11-19T03:52:28;12.10;99.90
14755;DHT22;7469;50.906;6.952;2023-11-19T03:54:56;12.10;99.90
14755;DHT22;7469;50.906;6.952;2023-11-19T03:57:25;12.10;99.90
14755;DHT22;7469;50.906;6.952;2023-11-19T03:59:53;12.10;99.90
14755;DHT22;7469;50.906;6.952;2023-11-19T04:02:22;12.10;99.90
14755;DHT22;7469;50.906;6.952;2023-11-19T04:04:50;12.10;99.90
14755;DHT22;7469;50.906;6.952;2023-11-19T04:07:18;12.10;99.90
14755;DHT22;7469;50.906;6.952;2023-11-19T04:09:48;12.10;99.90
14755;DHT22;7469;50.906;6.952;2023-11-19T04:12:16;12.10;99.90
14755;DHT22;7469;50.906;6.952;2023-11-19T04:14:44;12.10;99.90
14755;DHT22;7469;50.906;6.952;2023-11-19T04:17:12;12.10;99.90
14755;DHT22;7469;50.906;6.952;2023-11-19T04:19:40;12.10;99.90
14755;DHT22;7469;50.906;6.952;2023-11-19T04:22:10;12.10;99.90
14755;DHT22;7469;50.906;6.952;2023-11-19T04:24:38;12.10;99.90
14755;DHT22;7469;50.906;6.952;2023-11-19T04:27:08;12.20;99.90
14755;DHT22;7469;50.906;6.952;2023-11-19T04:29:36;12.20;99.90
14755;DHT22;7469;50.906;6.952;2023-11-19T04:32:05;12.20;99.90
14755;DHT22;7469;50.906;6.952;2023-11-19T04:34:33;12.20;99.90
14755;DHT22;7469;50.906;6.952;2023-11-19T04:37:02;12.20;99.90
14755;DHT22;7469;50.906;6.952;2023-11-19T04:39:34;12.30;99.90
14755;DHT22;7469;50.906;6.952;2023-11-19T04:42:02;12.30;99.90
14755;DHT22;7469;50.906;6.952;2023-11-19T04:44:32;12.30;99.90
14755;DHT22;7469;50.906;6.952;2023-11-19T04:47:00;12.30;99.90
14755;DHT22;7469;50.906;6.952;2023-11-19T04:49:28;12.30;99.90
14755;DHT22;7469;50.906;6.952;2023-11-19T04:51:57;12.30;99.90
14755;DHT22;7469;50.906;6.952;2023-11-19T04:54:25;12.30;99.90
14755;DHT22;7469;50.906;6.952;2023-11-19T04:56:53;12.30;99.90
14755;DHT22;7469;50.906;6.952;2023-11-19T04:59:21;12.30;99.90
14755;DHT22;7469;50.906;6.952;2023-11-19T05:01:51;12.20;99.90
14755;DHT22;7469;50.906;6.952;2023-11-19T05:04:18;12.20;99.90
14755;DHT22;7469;50.906;6.952;2023-11-19T05:06:47;12.20;99.90
14755;DHT22;7469;50.906;6.952;2023-11-19T05:09:15;12.20;99.90
14755;DHT22;7469;50.906;6.952;2023-11-19T05:11:43;12.20;99.90
14755;DHT22;7469;50.906;6.952;2023-11-19T05:14:13;12.20;99.90
14755;DHT22;7469;50.906;6.952;2023-11-19T05:16:42;12.10;99.90
14755;DHT22;7469;50.906;6.952;2023-11-19T05:19:11;12.10;99.90
14755;DHT22;7469;50.906;6.952;2023-11-19T05:21:41;12.10;99.90
14755;DHT22;7469;50.906;6.952;2023-11-19T05:24:10;12.10;99.90
14755;DHT22;7469;50.906;6.952;2023-11-19T05:26:39;12.10;99.90
14755;DHT22;7469;50.906;6.952;2023-11-19T05:29:07;12.00;99.90
14755;DHT22;7469;50.906;6.952;2023-11-19T05:31:35;12.00;99.90
14755;DHT22;7469;50.906;6.952;2023-11-19T05:34:05;12.00;99.90
14755;DHT22;7469;50.906;6.952;2023-11-19T05:36:35;12.00;99.90
14755;DHT22;7469;50.906;6.952;2023-11-19T05:39:03;12.00;99.90
14755;DHT22;7469;50.906;6.952;2023-11-19T05:41:31;11.90;99.90
14755;DHT22;7469;50.906;6.952;2023-11-19T05:43:59;11.90;99.90
14755;DHT22;7469;50.906;6.952;2023-11-19T05:46:28;11.90;99.90
14755;DHT22;7469;50.906;6.952;2023-11-19T05:48:56;11.90;99.90
14755;DHT22;7469;50.906;6.952;2023-11-19T05:51:24;11.90;99.90
14755;DHT22;7469;50.906;6.952;2023-11-19T05:53:53;11.80;99.90
14755;DHT22;7469;50.906;6.952;2023-11-19T05:56:23;11.90;99.90
14755;DHT22;7469;50.906;6.952;2023-11-19T05:58:51;11.90;99.90
14755;DHT22;7469;50.906;6.952;2023-11-19T06:01:19;11.90;99.90
14755;DHT22;7469;50.906;6.952;2023-11-19T06:03:47;11.90;99.90
14755;DHT22;7469;50.906;6.952;2023-11-19T06:06:17;11.90;99.90
14755;DHT22;7469;50.906;6.952;2023-11-19T06:08:45;11.90;99.90
14755;DHT22;7469;50.906;6.952;2023-11-19T06:11:15;11.90;99.90
14755;DHT22;7469;50.906;6.952;2023-11-19T06:13:45;11.90;99.90
14755;DHT22;7469;50.906;6.952;2023-11-19T06:16:13;11.90;99.90
14755;DHT22;7469;50.906;6.952;2023-11-19T06:18:41;11.90;99.90
14755;DHT22;7469;50.906;6.952;2023-11-19T06:21:11;11.90;99.90
14755;DHT22;7469;50.906;6.952;2023-11-19T06:23:38;11.80;99.90
14755;DHT22;7469;50.906;6.952;2023-11-19T06:26:06;11.80;99.90
14755;DHT22;7469;50.906;6.952;2023-11-19T06:28:36;11.80;99.90
14755;DHT22;7469;50.906;6.952;2023-11-19T06:31:04;11.80;99.90
14755;DHT22;7469;50.906;6.952;2023-11-19T06:33:32;11.80;99.90
14755;DHT22;7469;50.906;6.952;2023-11-19T06:36:00;11.80;99.90
14755;DHT22;7469;50.906;6.952;2023-11-19T06:38:28;11.80;99.90
14755;DHT22;7469;50.906;6.952;2023-11-19T06:40:56;11.80;99.90
14755;DHT22;7469;50.906;6.952;2023-11-19T06:43:24;11.80;99.90
14755;DHT22;7469;50.906;6.952;2023-11-19T06:45:54;11.80;99.90
14755;DHT22;7469;50.906;6.952;2023-11-19T06:48:22;11.80;99.90
14755;DHT22;7469;50.906;6.952;2023-11-19T06:50:50;11.80;99.90
14755;DHT22;7469;50.906;6.952;2023-11-19T06:53:17;11.80;99.90
14755;DHT22;7469;50.906;6.952;2023-11-19T06:55:45;11.80;99.90
14755;DHT22;7469;50.906;6.952;2023-11-19T06:58:13;11.80;99.90
14755;DHT22;7469;50.906;6.952;2023-11-19T07:00:41;11.80;99.90
14755;DHT22;7469;50.906;6.952;2023-11-19T07:03:11;11.80;99.90
14755;DHT22;7469;50.906;6.952;2023-11-19T07:05:39;11.80;99.90
14755;DHT22;7469;50.906;6.952;2023-11-19T07:08:07;11.80;99.90
14755;DHT22;7469;50.906;6.952;2023-11-19T07:10:35;11.80;99.90
14755;DHT22;7469;50.906;6.952;2023-11-19T07:13:03;11.80;99.90
14755;DHT22;7469;50.906;6.952;2023-11-19T07:15:32;11.80;99.90
14755;DHT22;7469;50.906;6.952;2023-11-19T07:18:01;11.80;99.90
14755;DHT22;7469;50.906;6.952;2023-11-19T07:20:30;11.80;99.90
14755;DHT22;7469;50.906;6.952;2023-11-19T07:22:59;11.80;99.90
14755;DHT22;7469;50.906;6.952;2023-11-19T07:25:27;11.80;99.90
14755;DHT22;7469;50.906;6.952;2023-11-19T07:27:55;11.80;99.90
14755;DHT22;7469;50.906;6.952;2023-11-19T07:30:23;11.80;99.90
14755;DHT22;7469;50.906;6.952;2023-11-19T07:32:51;11.80;99.90
14755;DHT22;7469;50.906;6.952;2023-11-19T07:35:19;11.80;99.90
14755;DHT22;7469;50.906;6.952;2023-11-19T07:37:49;11.80;99.90
14755;DHT22;7469;50.906;6.952;2023-11-19T07:40:17;11.80;99.90
14755;DHT22;7469;50.906;6.952;2023-11-19T07:42:45;11.80;99.90
14755;DHT22;7469;50.906;6.952;2023-11-19T07:45:13;11.80;99.90
14755;DHT22;7469;50.906;6.952;2023-11-19T07:47:41;11.80;99.90
14755;DHT22;7469;50.906;6.952;2023-11-19T07:50:11;11.90;99.90
14755;DHT22;7469;50.906;6.952;2023-11-19T07:52:40;11.90;99.90
14755;DHT22;7469;50.906;6.952;2023-11-19T07:55:10;11.80;99.90
14755;DHT22;7469;50.906;6.952;2023-11-19T07:57:38;11.80;99.90
14755;DHT22;7469;50.906;6.952;2023-11-19T08:00:07;11.80;99.90
14755;DHT22;7469;50.906;6.952;2023-11-19T08:02:39;11.80;99.90
14755;DHT22;7469;50.906;6.952;2023-11-19T08:05:07;11.90;99.90
14755;DHT22;7469;50.906;6.952;2023-11-19T08:07:35;11.90;99.90
14755;DHT22;7469;50.906;6.952;2023-11-19T08:10:04;11.90;99.90
14755;DHT22;7469;50.906;6.952;2023-11-19T08:12:37;11.90;99.90
14755;DHT22;7469;50.906;6.952;2023-11-19T08:15:06;11.90;99.90
14755;DHT22;7469;50.906;6.952;2023-11-19T08:17:34;12.00;99.90
14755;DHT22;7469;50.906;6.952;2023-11-19T08:20:03;12.00;99.90
14755;DHT22;7469;50.906;6.952;2023-11-19T08:22:36;12.10;99.90
14755;DHT22;7469;50.906;6.952;2023-11-19T08:25:06;12.10;99.90
14755;DHT22;7469;50.906;6.952;2023-11-19T08:27:34;12.20;99.90
14755;DHT22;7469;50.906;6.952;2023-11-19T08:30:05;12.30;99.90
14755;DHT22;7469;50.906;6.952;2023-11-19T08:32:34;12.40;99.90
14755;DHT22;7469;50.906;6.952;2023-11-19T08:35:03;12.50;99.90
14755;DHT22;7469;50.906;6.952;2023-11-19T08:37:32;12.60;99.90
14755;DHT22;7469;50.906;6.952;2023-11-19T08:40:00;12.80;99.90
14755;DHT22;7469;50.906;6.952;2023-11-19T08:42:28;12.90;99.90
14755;DHT22;7469;50.906;6.952;2023-11-19T08:44:56;13.00;99.90
14755;DHT22;7469;50.906;6.952;2023-11-19T08:47:25;13.10;99.90
14755;DHT22;7469;50.906;6.952;2023-11-19T08:49:53;13.20;99.90
14755;DHT22;7469;50.906;6.952;2023-11-19T08:52:24;13.40;99.90
14755;DHT22;7469;50.906;6.952;2023-11-19T08:54:52;13.60;99.90
14755;DHT22;7469;50.906;6.952;2023-11-19T08:57:20;14.00;99.90
14755;DHT22;7469;50.906;6.952;2023-11-19T08:59:48;14.50;99.90
14755;DHT22;7469;50.906;6.952;2023-11-19T09:02:16;15.00;99.90
14755;DHT22;7469;50.906;6.952;2023-11-19T09:04:46;15.60;99.90
14755;DHT22;7469;50.906;6.952;2023-11-19T09:07:17;16.10;99.90
14755;DHT22;7469;50.906;6.952;2023-11-19T09:09:45;16.50;99.90
14755;DHT22;7469;50.906;6.952;2023-11-19T09:12:13;16.80;99.90
14755;DHT22;7469;50.906;6.952;2023-11-19T09:14:41;17.10;99.90
14755;DHT22;7469;50.906;6.952;2023-11-19T09:17:11;17.30;99.90
14755;DHT22;7469;50.906;6.952;2023-11-19T09:19:39;17.40;99.90
14755;DHT22;7469;50.906;6.952;2023-11-19T09:22:08;17.50;99.90
14755;DHT22;7469;50.906;6.952;2023-11-19T09:24:36;17.50;99.90
14755;DHT22;7469;50.906;6.952;2023-11-19T09:27:05;17.40;99.90
14755;DHT22;7469;50.906;6.952;2023-11-19T09:29:33;17.20;99.90
14755;DHT22;7469;50.906;6.952;2023-11-19T09:32:01;17.40;99.90
14755;DHT22;7469;50.906;6.952;2023-11-19T09:34:31;17.50;99.90
14755;DHT22;7469;50.906;6.952;2023-11-19T09:36:59;17.50;99.90
14755;DHT22;7469;50.906;6.952;2023-11-19T09:39:29;17.50;99.90
14755;DHT22;7469;50.906;6.952;2023-11-19T09:41:57;17.80;99.90
14755;DHT22;7469;50.906;6.952;2023-11-19T09:44:26;18.10;99.90
14755;DHT22;7469;50.906;6.952;2023-11-19T09:46:56;18.30;99.90
14755;DHT22;7469;50.906;6.952;2023-11-19T09:49:26;18.50;99.90
14755;DHT22;7469;50.906;6.952;2023-11-19T09:51:57;18.60;99.90
14755;DHT22;7469;50.906;6.952;2023-11-19T09:54:25;18.40;99.90
14755;DHT22;7469;50.906;6.952;2023-11-19T09:56:56;17.80;99.90
14755;DHT22;7469;50.906;6.952;2023-11-19T09:59:27;17.40;99.90
14755;DHT22;7469;50.906;6.952;2023-11-19T10:01:56;17.10;99.90
14755;DHT22;7469;50.906;6.952;2023-11-19T10:04:25;17.10;99.90
14755;DHT22;7469;50.906;6.952;2023-11-19T10:06:54;17.20;99.90
14755;DHT22;7469;50.906;6.952;2023-11-19T10:09:22;17.30;99.90
14755;DHT22;7469;50.906;6.952;2023-11-19T10:11:50;17.50;99.90
14755;DHT22;7469;50.906;6.952;2023-11-19T10:14:23;17.40;99.90
14755;DHT22;7469;50.906;6.952;2023-11-19T10:16:51;17.20;99.90
14755;DHT22;7469;50.906;6.952;2023-11-19T10:19:20;17.20;99.90
14755;DHT22;7469;50.906;6.952;2023-11-19T10:21:48;17.00;99.90
14755;DHT22;7469;50.906;6.952;2023-11-19T10:24:16;16.70;99.90
14755;DHT22;7469;50.906;6.952;2023-11-19T10:26:46;16.50;99.90
14755;DHT22;7469;50.906;6.952;2023-11-19T10:29:14;16.10;99.90
14755;DHT22;7469;50.906;6.952;2023-11-19T10:31:55;16.00;99.90
14755;DHT22;7469;50.906;6.952;2023-11-19T10:34:44;16.00;99.90
14755;DHT22;7469;50.906;6.952;2023-11-19T10:37:27;15.90;99.90
14755;DHT22;7469;50.906;6.952;2023-11-19T10:39:55;15.90;99.90
14755;DHT22;7469;50.906;6.952;2023-11-19T10:42:23;15.80;99.90
14755;DHT22;7469;50.906;6.952;2023-11-19T10:44:51;15.80;99.90
14755;DHT22;7469;50.906;6.952;2023-11-19T10:47:22;16.00;99.90
14755;DHT22;7469;50.906;6.952;2023-11-19T10:49:53;16.30;99.90
14755;DHT22;7469;50.906;6.952;2023-11-19T10:52:22;16.20;99.90
14755;DHT22;7469;50.906;6.952;2023-11-19T10:54:51;16.00;99.90
14755;DHT22;7469;50.906;6.952;2023-11-19T10:57:22;15.90;99.90
14755;DHT22;7469;50.906;6.952;2023-11-19T11:00:01;15.80;99.90
14755;DHT22;7469;50.906;6.952;2023-11-19T11:02:34;15.60;99.90
14755;DHT22;7469;50.906;6.952;2023-11-19T11:05:05;15.50;99.90
14755;DHT22;7469;50.906;6.952;2023-11-19T11:07:35;15.40;99.90
14755;DHT22;7469;50.906;6.952;2023-11-19T11:10:08;15.10;99.90
14755;DHT22;7469;50.906;6.952;2023-11-19T11:12:37;15.00;99.90
14755;DHT22;7469;50.906;6.952;2023-11-19T11:15:08;14.90;99.90
14755;DHT22;7469;50.906;6.952;2023-11-19T11:17:41;14.90;99.90
14755;DHT22;7469;50.906;6.952;2023-11-19T11:20:12;14.90;99.90
14755;DHT22;7469;50.906;6.952;2023-11-19T11:22:48;15.00;99.90
14755;DHT22;7469;50.906;6.952;2023-11-19T11:25:31;15.20;99.90
14755;DHT22;7469;50.906;6.952;2023-11-19T11:28:14;15.30;99.90
14755;DHT22;7469;50.906;6.952;2023-11-19T11:30:54;15.50;99.90
14755;DHT22;7469;50.906;6.952;2023-11-19T11:33:36;15.40;99.90
14755;DHT22;7469;50.906;6.952;2023-11-19T11:36:14;15.30;99.90
14755;DHT22;7469;50.906;6.952;2023-11-19T11:38:48;15.20;99.90
14755;DHT22;7469;50.906;6.952;2023-11-19T11:41:18;15.30;99.90
14755;DHT22;7469;50.906;6.952;2023-11-19T11:43:47;15.40;99.90
14755;DHT22;7469;50.906;6.952;2023-11-19T11:49:29;15.40;99.90
14755;DHT22;7469;50.906;6.952;2023-11-19T11:52:01;15.40;99.90
14755;DHT22;7469;50.906;6.952;2023-11-19T11:54:31;15.40;99.90
14755;DHT22;7469;50.906;6.952;2023-11-19T11:57:11;15.30;99.90
14755;DHT22;7469;50.906;6.952;2023-11-19T11:59:48;15.30;99.90
14755;DHT22;7469;50.906;6.952;2023-11-19T12:02:17;15.60;99.90
14755;DHT22;7469;50.906;6.952;2023-11-19T12:04:50;15.70;99.90
14755;DHT22;7469;50.906;6.952;2023-11-19T12:07:20;15.80;99.90
14755;DHT22;7469;50.906;6.952;2023-11-19T12:09:52;15.80;99.90
14755;DHT22;7469;50.906;6.952;2023-11-19T12:12:23;15.80;99.90
14755;DHT22;7469;50.906;6.952;2023-11-19T12:15:07;15.80;99.90
14755;DHT22;7469;50.906;6.952;2023-11-19T12:17:46;15.70;99.90
14755;DHT22;7469;50.906;6.952;2023-11-19T12:20:22;15.60;99.90
14755;DHT22;7469;50.906;6.952;2023-11-19T12:22:53;15.60;99.90
14755;DHT22;7469;50.906;6.952;2023-11-19T12:25:21;15.60;99.90
14755;DHT22;7469;50.906;6.952;2023-11-19T12:27:51;15.60;99.90
14755;DHT22;7469;50.906;6.952;2023-11-19T12:30:22;15.70;99.90
14755;DHT22;7469;50.906;6.952;2023-11-19T12:32:52;15.70;99.90
14755;DHT22;7469;50.906;6.952;2023-11-19T12:35:23;15.70;99.90
14755;DHT22;7469;50.906;6.952;2023-11-19T12:37:51;15.70;99.90
14755;DHT22;7469;50.906;6.952;2023-11-19T12:40:21;15.60;99.90
14755;DHT22;7469;50.906;6.952;2023-11-19T12:42:51;15.60;99.90
14755;DHT22;7469;50.906;6.952;2023-11-19T12:45:20;15.40;99.90
14755;DHT22;7469;50.906;6.952;2023-11-19T12:47:50;15.30;99.90
14755;DHT22;7469;50.906;6.952;2023-11-19T12:50:19;15.20;99.90
14755;DHT22;7469;50.906;6.952;2023-11-19T12:52:56;15.20;99.90
14755;DHT22;7469;50.906;6.952;2023-11-19T12:55:26;15.20;99.90
14755;DHT22;7469;50.906;6.952;2023-11-19T12:57:56;15.10;99.90
14755;DHT22;7469;50.906;6.952;2023-11-19T13:00:27;15.00;99.90
14755;DHT22;7469;50.906;6.952;2023-11-19T13:02:56;14.90;99.90
14755;DHT22;7469;50.906;6.952;2023-11-19T13:05:29;14.90;99.90
14755;DHT22;7469;50.906;6.952;2023-11-19T13:08:04;14.80;99.90
14755;DHT22;7469;50.906;6.952;2023-11-19T13:10:33;14.90;99.90
14755;DHT22;7469;50.906;6.952;2023-11-19T13:13:06;14.90;99.90
14755;DHT22;7469;50.906;6.952;2023-11-19T13:15:35;14.90;99.90
14755;DHT22;7469;50.906;6.952;2023-11-19T13:18:03;14.90;99.90
14755;DHT22;7469;50.906;6.952;2023-11-19T13:20:33;14.90;99.90
14755;DHT22;7469;50.906;6.952;2023-11-19T13:23:04;14.90;99.90
14755;DHT22;7469;50.906;6.952;2023-11-19T13:25:32;15.00;99.90
14755;DHT22;7469;50.906;6.952;2023-11-19T13:28:00;15.10;99.90
14755;DHT22;7469;50.906;6.952;2023-11-19T13:30:28;15.20;99.90
14755;DHT22;7469;50.906;6.952;2023-11-19T13:32:57;15.20;99.90
14755;DHT22;7469;50.906;6.952;2023-11-19T13:35:25;15.20;99.90
14755;DHT22;7469;50.906;6.952;2023-11-19T13:37:54;15.00;99.90
14755;DHT22;7469;50.906;6.952;2023-11-19T13:40:24;15.10;99.90
14755;DHT22;7469;50.906;6.952;2023-11-19T13:42:52;15.00;99.90
14755;DHT22;7469;50.906;6.952;2023-11-19T13:45:20;15.00;99.90
14755;DHT22;7469;50.906;6.952;2023-11-19T13:47:48;15.00;99.90
14755;DHT22;7469;50.906;6.952;2023-11-19T13:50:16;15.00;99.90
14755;DHT22;7469;50.906;6.952;2023-11-19T13:52:45;15.10;99.90
14755;DHT22;7469;50.906;6.952;2023-11-19T13:55:14;15.10;99.90
14755;DHT22;7469;50.906;6.952;2023-11-19T13:57:43;15.20;99.90
14755;DHT22;7469;50.906;6.952;2023-11-19T14:00:13;15.30;99.90
14755;DHT22;7469;50.906;6.952;2023-11-19T14:02:43;15.20;99.90
14755;DHT22;7469;50.906;6.952;2023-11-19T14:05:12;15.20;99.90
14755;DHT22;7469;50.906;6.952;2023-11-19T14:07:40;15.20;99.90
14755;DHT22;7469;50.906;6.952;2023-11-19T14:10:08;15.10;99.90
14755;DHT22;7469;50.906;6.952;2023-11-19T14:12:38;15.10;99.90
14755;DHT22;7469;50.906;6.952;2023-11-19T14:15:09;15.10;99.90
14755;DHT22;7469;50.906;6.952;2023-11-19T14:17:40;15.00;99.90
14755;DHT22;7469;50.906;6.952;2023-11-19T14:20:08;15.00;99.90
14755;DHT22;7469;50.906;6.952;2023-11-19T14:22:40;15.00;99.90
14755;DHT22;7469;50.906;6.952;2023-11-19T14:25:08;15.00;99.90
14755;DHT22;7469;50.906;6.952;2023-11-19T14:27:37;15.00;99.90
14755;DHT22;7469;50.906;6.952;2023-11-19T14:30:09;14.90;99.90
14755;DHT22;7469;50.906;6.952;2023-11-19T14:32:38;14.90;99.90
14755;DHT22;7469;50.906;6.952;2023-11-19T14:35:07;14.80;99.90
14755;DHT22;7469;50.906;6.952;2023-11-19T14:37:35;14.80;99.90
14755;DHT22;7469;50.906;6.952;2023-11-19T14:40:04;14.70;99.90
14755;DHT22;7469;50.906;6.952;2023-11-19T14:42:33;14.60;99.90
14755;DHT22;7469;50.906;6.952;2023-11-19T14:45:01;14.60;99.90
14755;DHT22;7469;50.906;6.952;2023-11-19T14:47:31;14.50;99.90
14755;DHT22;7469;50.906;6.952;2023-11-19T14:49:59;14.60;99.90
14755;DHT22;7469;50.906;6.952;2023-11-19T14:52:27;14.50;99.90
14755;DHT22;7469;50.906;6.952;2023-11-19T14:54:55;14.50;99.90
14755;DHT22;7469;50.906;6.952;2023-11-19T14:57:23;14.50;99.90
14755;DHT22;7469;50.906;6.952;2023-11-19T14:59:51;14.40;99.90
14755;DHT22;7469;50.906;6.952;2023-11-19T15:02:19;14.30;99.90
14755;DHT22;7469;50.906;6.952;2023-11-19T15:04:49;14.30;99.90
14755;DHT22;7469;50.906;6.952;2023-11-19T15:07:18;14.20;99.90
14755;DHT22;7469;50.906;6.952;2023-11-19T15:09:46;14.20;99.90
14755;DHT22;7469;50.906;6.952;2023-11-19T15:12:14;14.10;99.90
14755;DHT22;7469;50.906;6.952;2023-11-19T15:14:43;14.10;99.90
14755;DHT22;7469;50.906;6.952;2023-11-19T15:17:11;14.00;99.90
14755;DHT22;7469;50.906;6.952;2023-11-19T15:19:39;14.00;99.90
14755;DHT22;7469;50.906;6.952;2023-11-19T15:22:08;14.00;99.90
14755;DHT22;7469;50.906;6.952;2023-11-19T15:24:38;13.90;99.90
14755;DHT22;7469;50.906;6.952;2023-11-19T15:27:08;13.90;99.90
14755;DHT22;7469;50.906;6.952;2023-11-19T15:29:40;13.80;99.90
14755;DHT22;7469;50.906;6.952;2023-11-19T15:32:08;13.80;99.90
14755;DHT22;7469;50.906;6.952;2023-11-19T15:34:36;13.80;99.90
14755;DHT22;7469;50.906;6.952;2023-11-19T15:37:07;13.80;99.90
14755;DHT22;7469;50.906;6.952;2023-11-19T15:39:35;13.80;99.90
14755;DHT22;7469;50.906;6.952;2023-11-19T15:42:04;13.80;99.90
14755;DHT22;7469;50.906;6.952;2023-11-19T15:44:32;13.70;99.90
14755;DHT22;7469;50.906;6.952;2023-11-19T15:47:00;13.70;99.90
14755;DHT22;7469;50.906;6.952;2023-11-19T15:49:28;13.70;99.90
14755;DHT22;7469;50.906;6.952;2023-11-19T15:51:57;13.60;99.90
14755;DHT22;7469;50.906;6.952;2023-11-19T15:54:26;13.60;99.90
14755;DHT22;7469;50.906;6.952;2023-11-19T15:56:54;13.60;99.90
14755;DHT22;7469;50.906;6.952;2023-11-19T15:59:22;13.50;99.90
14755;DHT22;7469;50.906;6.952;2023-11-19T16:01:50;13.50;99.90